sensor_id;sensor_type;location;lat;lon;timestamp;pressure;altitude;pressure_sealevel;temperature;humidity
56400;BME280;42298;53.638;9.876;2022-11-21T00:00:29;100272.16;;;2.07;63.35
56400;BME280;42298;53.638;9.876;2022-11-21T00:03:00;100316.81;;;2.31;63.50
56400;BME280;42298;53.638;9.876;2022-11-21T00:05:28;100293.38;;;2.15;63.38
56400;BME280;42298;53.638;9.876;2022-11-21T00:07:54;100309.97;;;2.23;64.34
56400;BME280;42298;53.638;9.876;2022-11-21T00:10:20;100294.44;;;2.09;65.08
56400;BME280;42298;53.638;9.876;2022-11-21T00:12:46;100313.72;;;2.07;64.86
56400;BME280;42298;53.638;9.876;2022-11-21T00:15:12;100311.28;;;2.01;64.55
56400;BME280;42298;53.638;9.876;2022-11-21T00:17:37;100310.75;;;2.04;65.11
56400;BME280;42298;53.638;9.876;2022-11-21T00:20:03;100279.72;;;1.89;64.49
56400;BME280;42298;53.638;9.876;2022-11-21T00:22:30;100282.19;;;2.01;64.21
56400;BME280;42298;53.638;9.876;2022-11-21T00:24:55;100298.22;;;2.03;63.45
56400;BME280;42298;53.638;9.876;2022-11-21T00:27:20;100261.47;;;1.80;64.10
56400;BME280;42298;53.638;9.876;2022-11-21T00:29:46;100277.47;;;1.81;65.98
56400;BME280;42298;53.638;9.876;2022-11-21T00:32:11;100266.53;;;1.61;66.97
56400;BME280;42298;53.638;9.876;2022-11-21T00:34:36;100271.41;;;1.59;66.64
56400;BME280;42298;53.638;9.876;2022-11-21T00:37:02;100257.78;;;1.54;66.48
56400;BME280;42298;53.638;9.876;2022-11-21T00:39:27;100306.78;;;1.74;66.65
56400;BME280;42298;53.638;9.876;2022-11-21T00:41:52;100296.13;;;1.68;66.00
56400;BME280;42298;53.638;9.876;2022-11-21T00:44:18;100252.78;;;1.36;65.20
56400;BME280;42298;53.638;9.876;2022-11-21T00:46:43;100254.28;;;1.54;65.42
56400;BME280;42298;53.638;9.876;2022-11-21T00:49:08;100241.47;;;1.44;65.94
56400;BME280;42298;53.638;9.876;2022-11-21T00:51:34;100256.38;;;1.47;66.30
56400;BME280;42298;53.638;9.876;2022-11-21T00:53:59;100276.25;;;1.52;65.76
56400;BME280;42298;53.638;9.876;2022-11-21T00:56:24;100281.41;;;1.54;65.55
56400;BME280;42298;53.638;9.876;2022-11-21T00:58:49;100246.78;;;1.29;64.83
56400;BME280;42298;53.638;9.876;2022-11-21T01:01:15;100280.81;;;1.47;65.64
56400;BME280;42298;53.638;9.876;2022-11-21T01:03:41;100278.91;;;1.47;65.08
56400;BME280;42298;53.638;9.876;2022-11-21T01:06:12;100278.41;;;1.50;64.70
56400;BME280;42298;53.638;9.876;2022-11-21T01:08:40;100287.59;;;1.44;64.79
56400;BME280;42298;53.638;9.876;2022-11-21T01:11:11;100245.66;;;1.20;64.95
56400;BME280;42298;53.638;9.876;2022-11-21T01:13:37;100279.75;;;1.48;65.11
56400;BME280;42298;53.638;9.876;2022-11-21T01:16:13;100288.16;;;1.51;64.42
56400;BME280;42298;53.638;9.876;2022-11-21T01:18:40;100282.69;;;1.41;63.85
56400;BME280;42298;53.638;9.876;2022-11-21T01:21:11;100246.16;;;1.17;64.91
56400;BME280;42298;53.638;9.876;2022-11-21T01:23:37;100232.56;;;1.12;65.61
56400;BME280;42298;53.638;9.876;2022-11-21T01:26:09;100294.19;;;1.58;65.85
56400;BME280;42298;53.638;9.876;2022-11-21T01:28:38;100263.22;;;1.49;65.23
56400;BME280;42298;53.638;9.876;2022-11-21T01:31:10;100286.63;;;1.65;65.25
56400;BME280;42298;53.638;9.876;2022-11-21T01:33:36;100274.06;;;1.49;64.68
56400;BME280;42298;53.638;9.876;2022-11-21T01:38:34;100270.22;;;1.40;64.67
56400;BME280;42298;53.638;9.876;2022-11-21T01:41:00;100289.56;;;1.59;64.48
56400;BME280;42298;53.638;9.876;2022-11-21T01:43:25;100254.97;;;1.34;63.39
56400;BME280;42298;53.638;9.876;2022-11-21T01:54:11;100286.31;;;1.57;65.57
56400;BME280;42298;53.638;9.876;2022-11-21T01:56:52;100276.78;;;1.49;66.18
56400;BME280;42298;53.638;9.876;2022-11-21T01:59:46;100291.69;;;1.52;66.87
56400;BME280;42298;53.638;9.876;2022-11-21T02:02:16;100274.22;;;1.38;66.46
56400;BME280;42298;53.638;9.876;2022-11-21T02:04:43;100290.63;;;1.53;65.77
56400;BME280;42298;53.638;9.876;2022-11-21T02:07:10;100299.06;;;1.56;65.98
56400;BME280;42298;53.638;9.876;2022-11-21T02:09:40;100279.44;;;1.44;66.04
56400;BME280;42298;53.638;9.876;2022-11-21T02:12:10;100296.03;;;1.53;66.90
56400;BME280;42298;53.638;9.876;2022-11-21T02:14:39;100294.16;;;1.53;67.42
56400;BME280;42298;53.638;9.876;2022-11-21T02:17:07;100250.34;;;1.35;65.82
56400;BME280;42298;53.638;9.876;2022-11-21T02:19:54;100279.31;;;1.66;67.06
56400;BME280;42298;53.638;9.876;2022-11-21T02:22:39;100270.66;;;1.69;66.15
56400;BME280;42298;53.638;9.876;2022-11-21T02:25:15;100263.84;;;1.66;64.98
56400;BME280;42298;53.638;9.876;2022-11-21T02:27:42;100285.06;;;1.74;64.32
56400;BME280;42298;53.638;9.876;2022-11-21T02:30:08;100285.63;;;1.76;66.02
56400;BME280;42298;53.638;9.876;2022-11-21T02:32:37;100238.44;;;1.36;66.34
56400;BME280;42298;53.638;9.876;2022-11-21T02:35:04;100274.38;;;1.58;66.52
56400;BME280;42298;53.638;9.876;2022-11-21T02:37:30;100244.91;;;1.35;66.40
56400;BME280;42298;53.638;9.876;2022-11-21T02:39:58;100289.09;;;1.67;65.86
56400;BME280;42298;53.638;9.876;2022-11-21T02:45:07;100278.22;;;1.67;64.51
56400;BME280;42298;53.638;9.876;2022-11-21T02:47:35;100284.41;;;1.57;64.43
56400;BME280;42298;53.638;9.876;2022-11-21T02:52:35;100258.22;;;1.31;66.19
56400;BME280;42298;53.638;9.876;2022-11-21T02:55:00;100242.38;;;1.18;66.24
56400;BME280;42298;53.638;9.876;2022-11-21T02:57:25;100264.44;;;1.32;65.49
56400;BME280;42298;53.638;9.876;2022-11-21T02:59:51;100261.44;;;1.28;65.61
56400;BME280;42298;53.638;9.876;2022-11-21T03:02:16;100261.19;;;1.30;65.09
56400;BME280;42298;53.638;9.876;2022-11-21T03:04:41;100258.69;;;1.23;64.08
56400;BME280;42298;53.638;9.876;2022-11-21T03:07:07;100225.41;;;0.96;65.34
56400;BME280;42298;53.638;9.876;2022-11-21T03:09:32;100266.00;;;1.23;65.31
56400;BME280;42298;53.638;9.876;2022-11-21T03:11:57;100235.78;;;1.04;65.23
56400;BME280;42298;53.638;9.876;2022-11-21T03:14:23;100260.03;;;1.26;64.38
56400;BME280;42298;53.638;9.876;2022-11-21T03:16:48;100218.94;;;0.97;66.38
56400;BME280;42298;53.638;9.876;2022-11-21T03:19:13;100230.63;;;1.08;67.07
56400;BME280;42298;53.638;9.876;2022-11-21T03:21:38;100247.50;;;1.15;67.32
56400;BME280;42298;53.638;9.876;2022-11-21T03:24:04;100247.25;;;1.21;67.00
56400;BME280;42298;53.638;9.876;2022-11-21T03:26:30;100210.81;;;1.02;66.37
56400;BME280;42298;53.638;9.876;2022-11-21T03:28:55;100218.47;;;1.10;66.20
56400;BME280;42298;53.638;9.876;2022-11-21T03:31:20;100216.84;;;1.14;65.30
56400;BME280;42298;53.638;9.876;2022-11-21T03:33:46;100247.34;;;1.31;65.00
56400;BME280;42298;53.638;9.876;2022-11-21T03:36:11;100234.53;;;1.22;64.44
56400;BME280;42298;53.638;9.876;2022-11-21T03:38:36;100233.19;;;1.24;63.60
56400;BME280;42298;53.638;9.876;2022-11-21T03:41:03;100231.88;;;1.27;64.07
56400;BME280;42298;53.638;9.876;2022-11-21T03:43:29;100200.00;;;1.07;64.59
56400;BME280;42298;53.638;9.876;2022-11-21T03:45:55;100218.56;;;1.25;64.85
56400;BME280;42298;53.638;9.876;2022-11-21T03:48:20;100203.31;;;1.14;65.23
56400;BME280;42298;53.638;9.876;2022-11-21T03:50:45;100198.09;;;1.08;64.02
56400;BME280;42298;53.638;9.876;2022-11-21T03:53:11;100202.41;;;1.04;64.28
56400;BME280;42298;53.638;9.876;2022-11-21T03:55:36;100219.31;;;1.16;64.92
56400;BME280;42298;53.638;9.876;2022-11-21T03:58:01;100216.34;;;1.17;65.15
56400;BME280;42298;53.638;9.876;2022-11-21T04:00:27;100252.56;;;1.43;65.68
56400;BME280;42298;53.638;9.876;2022-11-21T04:02:52;100249.88;;;1.43;65.17
56400;BME280;42298;53.638;9.876;2022-11-21T04:05:17;100255.34;;;1.48;65.07
56400;BME280;42298;53.638;9.876;2022-11-21T04:07:44;100258.84;;;1.48;64.84
56400;BME280;42298;53.638;9.876;2022-11-21T04:10:10;100266.41;;;1.41;65.76
56400;BME280;42298;53.638;9.876;2022-11-21T04:12:36;100234.22;;;1.18;65.76
56400;BME280;42298;53.638;9.876;2022-11-21T04:15:01;100233.94;;;1.15;66.20
56400;BME280;42298;53.638;9.876;2022-11-21T04:17:26;100232.81;;;1.11;66.92
56400;BME280;42298;53.638;9.876;2022-11-21T04:19:52;100239.41;;;1.20;66.18
56400;BME280;42298;53.638;9.876;2022-11-21T04:22:17;100259.00;;;1.32;65.63
56400;BME280;42298;53.638;9.876;2022-11-21T04:24:42;100247.78;;;1.18;66.58
56400;BME280;42298;53.638;9.876;2022-11-21T04:27:08;100262.22;;;1.29;65.78
56400;BME280;42298;53.638;9.876;2022-11-21T04:29:33;100257.31;;;1.21;65.37
56400;BME280;42298;53.638;9.876;2022-11-21T04:31:58;100273.06;;;1.24;65.30
56400;BME280;42298;53.638;9.876;2022-11-21T04:34:24;100234.13;;;1.03;65.61
56400;BME280;42298;53.638;9.876;2022-11-21T04:36:49;100238.44;;;0.99;65.43
56400;BME280;42298;53.638;9.876;2022-11-21T04:39:14;100266.13;;;1.06;66.96
56400;BME280;42298;53.638;9.876;2022-11-21T04:41:40;100240.19;;;0.79;68.26
56400;BME280;42298;53.638;9.876;2022-11-21T04:44:05;100267.66;;;0.92;68.01
56400;BME280;42298;53.638;9.876;2022-11-21T04:46:30;100237.66;;;0.67;68.75
56400;BME280;42298;53.638;9.876;2022-11-21T04:48:56;100266.97;;;0.75;69.40
56400;BME280;42298;53.638;9.876;2022-11-21T04:51:21;100252.81;;;0.68;69.21
56400;BME280;42298;53.638;9.876;2022-11-21T04:53:46;100250.31;;;0.62;69.74
56400;BME280;42298;53.638;9.876;2022-11-21T04:56:12;100265.06;;;0.76;70.67
56400;BME280;42298;53.638;9.876;2022-11-21T04:58:41;100259.41;;;0.77;69.82
56400;BME280;42298;53.638;9.876;2022-11-21T05:01:07;100263.22;;;0.81;69.93
56400;BME280;42298;53.638;9.876;2022-11-21T05:03:33;100258.69;;;0.87;70.00
56400;BME280;42298;53.638;9.876;2022-11-21T05:05:58;100259.53;;;0.92;69.24
56400;BME280;42298;53.638;9.876;2022-11-21T05:08:23;100218.06;;;0.60;69.53
56400;BME280;42298;53.638;9.876;2022-11-21T05:10:50;100259.19;;;0.84;69.68
56400;BME280;42298;53.638;9.876;2022-11-21T05:13:34;100252.31;;;0.71;68.71
56400;BME280;42298;53.638;9.876;2022-11-21T05:15:59;100241.38;;;0.61;69.35
56400;BME280;42298;53.638;9.876;2022-11-21T05:18:24;100214.19;;;0.51;70.29
56400;BME280;42298;53.638;9.876;2022-11-21T05:20:50;100235.44;;;0.64;69.48
56400;BME280;42298;53.638;9.876;2022-11-21T05:23:15;100256.94;;;0.76;69.22
56400;BME280;42298;53.638;9.876;2022-11-21T05:25:40;100267.59;;;0.87;69.25
56400;BME280;42298;53.638;9.876;2022-11-21T05:28:06;100275.22;;;0.90;68.77
56400;BME280;42298;53.638;9.876;2022-11-21T05:30:31;100269.28;;;0.93;68.60
56400;BME280;42298;53.638;9.876;2022-11-21T05:32:57;100223.44;;;0.55;68.62
56400;BME280;42298;53.638;9.876;2022-11-21T05:35:22;100258.06;;;0.80;69.36
56400;BME280;42298;53.638;9.876;2022-11-21T05:37:47;100244.16;;;0.71;69.04
56400;BME280;42298;53.638;9.876;2022-11-21T05:40:13;100242.31;;;0.77;69.06
56400;BME280;42298;53.638;9.876;2022-11-21T05:42:41;100227.34;;;0.69;68.69
56400;BME280;42298;53.638;9.876;2022-11-21T05:45:25;100266.81;;;0.87;67.95
56400;BME280;42298;53.638;9.876;2022-11-21T05:47:50;100225.41;;;0.65;67.73
56400;BME280;42298;53.638;9.876;2022-11-21T05:50:16;100262.19;;;0.87;67.84
56400;BME280;42298;53.638;9.876;2022-11-21T05:52:41;100219.41;;;0.58;67.73
56400;BME280;42298;53.638;9.876;2022-11-21T05:55:07;100268.63;;;0.81;68.06
56400;BME280;42298;53.638;9.876;2022-11-21T05:57:32;100230.75;;;0.55;68.61
56400;BME280;42298;53.638;9.876;2022-11-21T05:59:58;100267.22;;;0.74;68.73
56400;BME280;42298;53.638;9.876;2022-11-21T06:02:23;100220.34;;;0.47;67.58
56400;BME280;42298;53.638;9.876;2022-11-21T06:05:07;100249.84;;;0.70;67.95
56400;BME280;42298;53.638;9.876;2022-11-21T06:07:32;100266.81;;;0.87;67.93
56400;BME280;42298;53.638;9.876;2022-11-21T06:09:58;100257.25;;;0.79;67.30
56400;BME280;42298;53.638;9.876;2022-11-21T06:12:23;100254.56;;;0.79;66.92
56400;BME280;42298;53.638;9.876;2022-11-21T06:14:48;100275.19;;;0.85;66.83
56400;BME280;42298;53.638;9.876;2022-11-21T06:17:14;100250.41;;;0.72;67.26
56400;BME280;42298;53.638;9.876;2022-11-21T06:19:39;100249.59;;;0.71;67.06
56400;BME280;42298;53.638;9.876;2022-11-21T06:22:04;100227.22;;;0.54;66.89
56400;BME280;42298;53.638;9.876;2022-11-21T06:24:30;100266.44;;;0.78;66.93
56400;BME280;42298;53.638;9.876;2022-11-21T06:26:56;100258.63;;;0.82;67.32
56400;BME280;42298;53.638;9.876;2022-11-21T06:29:21;100253.00;;;0.88;67.19
56400;BME280;42298;53.638;9.876;2022-11-21T06:31:46;100238.28;;;0.79;66.14
56400;BME280;42298;53.638;9.876;2022-11-21T06:34:12;100239.91;;;0.80;66.85
56400;BME280;42298;53.638;9.876;2022-11-21T06:36:37;100264.44;;;0.95;66.49
56400;BME280;42298;53.638;9.876;2022-11-21T06:39:03;100264.44;;;0.95;66.31
56400;BME280;42298;53.638;9.876;2022-11-21T06:41:30;100236.91;;;0.77;65.96
56400;BME280;42298;53.638;9.876;2022-11-21T06:44:00;100266.03;;;0.91;66.64
56400;BME280;42298;53.638;9.876;2022-11-21T06:46:26;100239.84;;;0.70;66.70
56400;BME280;42298;53.638;9.876;2022-11-21T06:48:52;100243.91;;;0.73;67.11
56400;BME280;42298;53.638;9.876;2022-11-21T06:51:19;100256.44;;;0.79;67.42
56400;BME280;42298;53.638;9.876;2022-11-21T06:53:45;100258.06;;;0.80;67.46
56400;BME280;42298;53.638;9.876;2022-11-21T06:56:11;100253.16;;;0.77;67.74
56400;BME280;42298;53.638;9.876;2022-11-21T06:58:36;100264.88;;;0.82;68.23
56400;BME280;42298;53.638;9.876;2022-11-21T07:01:06;100237.97;;;0.76;67.65
56400;BME280;42298;53.638;9.876;2022-11-21T07:03:32;100203.06;;;0.48;68.48
56400;BME280;42298;53.638;9.876;2022-11-21T07:05:58;100256.13;;;0.75;69.00
56400;BME280;42298;53.638;9.876;2022-11-21T07:08:26;100257.19;;;0.74;69.25
56400;BME280;42298;53.638;9.876;2022-11-21T07:10:51;100223.44;;;0.55;69.45
56400;BME280;42298;53.638;9.876;2022-11-21T07:13:17;100223.47;;;0.60;69.70
56400;BME280;42298;53.638;9.876;2022-11-21T07:15:53;100229.84;;;0.76;68.88
56400;BME280;42298;53.638;9.876;2022-11-21T07:18:22;100261.78;;;1.00;69.18
56400;BME280;42298;53.638;9.876;2022-11-21T07:20:48;100233.41;;;0.81;68.72
56400;BME280;42298;53.638;9.876;2022-11-21T07:23:13;100246.19;;;0.86;68.48
56400;BME280;42298;53.638;9.876;2022-11-21T07:25:39;100263.59;;;0.95;68.56
56400;BME280;42298;53.638;9.876;2022-11-21T07:28:05;100244.75;;;0.78;69.29
56400;BME280;42298;53.638;9.876;2022-11-21T07:30:32;100267.16;;;0.95;69.17
56400;BME280;42298;53.638;9.876;2022-11-21T07:32:59;100272.06;;;0.98;69.54
56400;BME280;42298;53.638;9.876;2022-11-21T07:35:25;100247.91;;;0.97;68.58
56400;BME280;42298;53.638;9.876;2022-11-21T07:37:51;100271.28;;;1.08;68.72
56400;BME280;42298;53.638;9.876;2022-11-21T07:40:16;100218.69;;;0.72;69.24
56400;BME280;42298;53.638;9.876;2022-11-21T07:42:42;100215.97;;;0.67;69.08
56400;BME280;42298;53.638;9.876;2022-11-21T07:45:08;100267.97;;;0.96;70.13
56400;BME280;42298;53.638;9.876;2022-11-21T07:47:34;100248.91;;;0.86;69.37
56400;BME280;42298;53.638;9.876;2022-11-21T07:49:59;100244.50;;;0.80;69.76
56400;BME280;42298;53.638;9.876;2022-11-21T07:52:24;100217.66;;;0.73;70.06
56400;BME280;42298;53.638;9.876;2022-11-21T07:54:50;100260.38;;;0.98;70.16
56400;BME280;42298;53.638;9.876;2022-11-21T07:57:15;100244.69;;;1.00;69.87
56400;BME280;42298;53.638;9.876;2022-11-21T07:59:41;100215.22;;;0.77;69.80
56400;BME280;42298;53.638;9.876;2022-11-21T08:02:11;100250.09;;;1.00;70.26
56400;BME280;42298;53.638;9.876;2022-11-21T08:04:37;100252.31;;;1.08;70.16
56400;BME280;42298;53.638;9.876;2022-11-21T08:07:02;100255.38;;;1.16;70.22
56400;BME280;42298;53.638;9.876;2022-11-21T08:09:28;100252.16;;;1.19;69.12
56400;BME280;42298;53.638;9.876;2022-11-21T08:11:53;100212.69;;;0.97;69.61
56400;BME280;42298;53.638;9.876;2022-11-21T08:14:19;100222.47;;;1.03;69.50
56400;BME280;42298;53.638;9.876;2022-11-21T08:16:44;100260.56;;;1.23;69.33
56400;BME280;42298;53.638;9.876;2022-11-21T08:19:09;100236.34;;;1.11;70.00
56400;BME280;42298;53.638;9.876;2022-11-21T08:21:34;100241.31;;;1.24;70.22
56400;BME280;42298;53.638;9.876;2022-11-21T08:24:00;100218.03;;;1.28;69.90
56400;BME280;42298;53.638;9.876;2022-11-21T08:26:25;100214.81;;;1.31;69.79
56400;BME280;42298;53.638;9.876;2022-11-21T08:28:51;100237.41;;;1.47;70.20
56400;BME280;42298;53.638;9.876;2022-11-21T08:31:16;100263.88;;;1.71;70.07
56400;BME280;42298;53.638;9.876;2022-11-21T08:33:41;100242.16;;;1.71;70.15
56400;BME280;42298;53.638;9.876;2022-11-21T08:36:07;100253.94;;;1.97;70.73
56400;BME280;42298;53.638;9.876;2022-11-21T08:38:32;100254.53;;;2.14;69.55
56400;BME280;42298;53.638;9.876;2022-11-21T08:40:58;100252.13;;;2.28;70.22
56400;BME280;42298;53.638;9.876;2022-11-21T08:43:42;100218.75;;;2.37;68.68
56400;BME280;42298;53.638;9.876;2022-11-21T08:46:08;100245.19;;;2.72;68.75
56400;BME280;42298;53.638;9.876;2022-11-21T08:48:33;100245.47;;;2.90;67.88
56400;BME280;42298;53.638;9.876;2022-11-21T08:50:59;100223.97;;;2.94;68.15
56400;BME280;42298;53.638;9.876;2022-11-21T08:53:24;100227.78;;;3.08;67.82
56400;BME280;42298;53.638;9.876;2022-11-21T08:55:50;100234.56;;;3.30;67.20
56400;BME280;42298;53.638;9.876;2022-11-21T08:58:15;100242.94;;;3.59;67.97
56400;BME280;42298;53.638;9.876;2022-11-21T09:00:40;100234.19;;;3.77;66.71
56400;BME280;42298;53.638;9.876;2022-11-21T09:03:05;100217.00;;;3.81;65.92
56400;BME280;42298;53.638;9.876;2022-11-21T09:05:33;100219.44;;;3.83;65.62
56400;BME280;42298;53.638;9.876;2022-11-21T09:08:00;100240.06;;;4.04;66.55
56400;BME280;42298;53.638;9.876;2022-11-21T09:10:25;100237.78;;;4.21;66.16
56400;BME280;42298;53.638;9.876;2022-11-21T09:12:51;100234.41;;;4.39;65.94
56400;BME280;42298;53.638;9.876;2022-11-21T09:15:17;100221.66;;;4.30;66.05
56400;BME280;42298;53.638;9.876;2022-11-21T09:18:02;100216.16;;;4.40;66.31
56400;BME280;42298;53.638;9.876;2022-11-21T09:20:28;100233.22;;;4.55;66.04
56400;BME280;42298;53.638;9.876;2022-11-21T09:22:55;100244.00;;;4.75;66.32
56400;BME280;42298;53.638;9.876;2022-11-21T09:25:20;100226.50;;;4.81;65.13
56400;BME280;42298;53.638;9.876;2022-11-21T09:27:45;100225.09;;;4.89;64.21
56400;BME280;42298;53.638;9.876;2022-11-21T09:30:11;100229.09;;;5.01;64.36
56400;BME280;42298;53.638;9.876;2022-11-21T09:32:36;100233.06;;;5.14;63.56
56400;BME280;42298;53.638;9.876;2022-11-21T09:35:03;100249.44;;;5.42;64.33
56400;BME280;42298;53.638;9.876;2022-11-21T09:37:29;100250.56;;;5.41;63.88
56400;BME280;42298;53.638;9.876;2022-11-21T09:39:55;100246.56;;;5.57;63.99
56400;BME280;42298;53.638;9.876;2022-11-21T09:47:27;100259.34;;;5.91;62.04
56400;BME280;42298;53.638;9.876;2022-11-21T09:52:45;100256.63;;;6.33;63.23
56400;BME280;42298;53.638;9.876;2022-11-21T09:58:01;100255.56;;;6.52;60.78
56400;BME280;42298;53.638;9.876;2022-11-21T10:00:27;100258.94;;;6.44;60.47
56400;BME280;42298;53.638;9.876;2022-11-21T10:02:53;100253.13;;;6.09;60.08
56400;BME280;42298;53.638;9.876;2022-11-21T10:05:28;100253.16;;;6.04;61.21
56400;BME280;42298;53.638;9.876;2022-11-21T10:08:00;100254.34;;;5.98;60.95
56400;BME280;42298;53.638;9.876;2022-11-21T10:10:53;100241.97;;;5.76;61.13
56400;BME280;42298;53.638;9.876;2022-11-21T10:13:44;100242.50;;;5.83;62.10
56400;BME280;42298;53.638;9.876;2022-11-21T10:16:19;100215.47;;;5.77;61.05
56400;BME280;42298;53.638;9.876;2022-11-21T10:21:47;100231.41;;;5.70;60.53
56400;BME280;42298;53.638;9.876;2022-11-21T10:24:30;100240.56;;;5.55;61.36
56400;BME280;42298;53.638;9.876;2022-11-21T10:26:59;100236.91;;;5.41;61.69
56400;BME280;42298;53.638;9.876;2022-11-21T10:29:45;100224.28;;;5.45;61.94
56400;BME280;42298;53.638;9.876;2022-11-21T10:32:21;100224.69;;;5.34;62.61
56400;BME280;42298;53.638;9.876;2022-11-21T10:34:50;100234.69;;;5.43;62.60
56400;BME280;42298;53.638;9.876;2022-11-21T10:37:31;100230.66;;;5.36;62.08
56400;BME280;42298;53.638;9.876;2022-11-21T10:40:07;100203.03;;;5.14;61.59
56400;BME280;42298;53.638;9.876;2022-11-21T10:42:44;100218.13;;;5.35;62.02
56400;BME280;42298;53.638;9.876;2022-11-21T10:45:12;100226.47;;;5.43;62.05
56400;BME280;42298;53.638;9.876;2022-11-21T10:47:42;100204.13;;;5.41;62.37
56400;BME280;42298;53.638;9.876;2022-11-21T10:52:59;100228.00;;;5.31;61.95
56400;BME280;42298;53.638;9.876;2022-11-21T10:55:25;100199.66;;;4.98;63.07
56400;BME280;42298;53.638;9.876;2022-11-21T10:57:51;100213.63;;;5.20;62.28
56400;BME280;42298;53.638;9.876;2022-11-21T11:00:25;100213.75;;;5.34;62.21
56400;BME280;42298;53.638;9.876;2022-11-21T11:05:25;100212.31;;;5.41;62.25
56400;BME280;42298;53.638;9.876;2022-11-21T11:08:11;100211.78;;;5.39;62.24
56400;BME280;42298;53.638;9.876;2022-11-21T11:10:44;100211.78;;;5.39;62.36
56400;BME280;42298;53.638;9.876;2022-11-21T11:13:20;100211.63;;;5.54;62.78
56400;BME280;42298;53.638;9.876;2022-11-21T11:18:38;100195.19;;;5.59;61.17
56400;BME280;42298;53.638;9.876;2022-11-21T11:21:15;100181.63;;;5.49;61.03
56400;BME280;42298;53.638;9.876;2022-11-21T11:23:41;100181.88;;;5.53;60.72
56400;BME280;42298;53.638;9.876;2022-11-21T11:26:22;100196.19;;;5.68;61.03
56400;BME280;42298;53.638;9.876;2022-11-21T11:28:48;100188.97;;;5.77;61.58
56400;BME280;42298;53.638;9.876;2022-11-21T11:31:14;100169.09;;;5.72;61.40
56400;BME280;42298;53.638;9.876;2022-11-21T11:33:50;100184.69;;;5.71;60.52
56400;BME280;42298;53.638;9.876;2022-11-21T11:36:35;100183.16;;;5.60;60.69
56400;BME280;42298;53.638;9.876;2022-11-21T11:39:09;100187.72;;;5.70;61.02
56400;BME280;42298;53.638;9.876;2022-11-21T11:44:45;100195.63;;;5.71;61.50
56400;BME280;42298;53.638;9.876;2022-11-21T11:47:41;100184.03;;;5.56;61.39
56400;BME280;42298;53.638;9.876;2022-11-21T11:50:16;100194.91;;;5.61;61.66
56400;BME280;42298;53.638;9.876;2022-11-21T11:55:39;100179.28;;;5.90;61.18
56400;BME280;42298;53.638;9.876;2022-11-21T11:58:31;100166.00;;;5.83;61.50
56400;BME280;42298;53.638;9.876;2022-11-21T12:01:03;100162.19;;;6.03;60.73
56400;BME280;42298;53.638;9.876;2022-11-21T12:07:05;100168.03;;;6.15;60.17
56400;BME280;42298;53.638;9.876;2022-11-21T12:09:13;100149.31;;;6.04;60.38
56400;BME280;42298;53.638;9.876;2022-11-21T12:11:53;100128.47;;;5.89;61.03
56400;BME280;42298;53.638;9.876;2022-11-21T12:17:26;100127.75;;;5.78;60.68
56400;BME280;42298;53.638;9.876;2022-11-21T12:19:55;100127.94;;;5.87;61.23
56400;BME280;42298;53.638;9.876;2022-11-21T12:22:22;100109.69;;;5.82;60.73
56400;BME280;42298;53.638;9.876;2022-11-21T12:24:47;100112.81;;;5.95;60.65
56400;BME280;42298;53.638;9.876;2022-11-21T12:30:13;100126.19;;;5.96;60.69
56400;BME280;42298;53.638;9.876;2022-11-21T12:32:54;100103.06;;;5.88;60.90
56400;BME280;42298;53.638;9.876;2022-11-21T12:35:24;100100.44;;;5.78;61.34
56400;BME280;42298;53.638;9.876;2022-11-21T12:38:05;100094.44;;;5.76;60.81
56400;BME280;42298;53.638;9.876;2022-11-21T12:43:28;100096.44;;;5.71;60.94
56400;BME280;42298;53.638;9.876;2022-11-21T12:46:09;100083.81;;;5.56;60.86
56400;BME280;42298;53.638;9.876;2022-11-21T12:54:51;100089.28;;;5.56;60.65
56400;BME280;42298;53.638;9.876;2022-11-21T12:57:20;100085.56;;;5.47;60.75
56400;BME280;42298;53.638;9.876;2022-11-21T13:02:47;100088.50;;;5.51;60.94
56400;BME280;42298;53.638;9.876;2022-11-21T13:05:23;100083.00;;;5.56;61.16
56400;BME280;42298;53.638;9.876;2022-11-21T13:07:55;100042.47;;;5.21;60.83
56400;BME280;42298;53.638;9.876;2022-11-21T13:10:24;100050.03;;;5.29;61.07
56400;BME280;42298;53.638;9.876;2022-11-21T13:12:59;100067.03;;;5.44;61.36
56400;BME280;42298;53.638;9.876;2022-11-21T13:15:35;100044.25;;;5.30;61.65
56400;BME280;42298;53.638;9.876;2022-11-21T13:18:17;100063.94;;;5.51;61.00
56400;BME280;42298;53.638;9.876;2022-11-21T13:20:50;100061.88;;;5.43;60.58
56400;BME280;42298;53.638;9.876;2022-11-21T13:23:39;100039.97;;;5.24;60.62
56400;BME280;42298;53.638;9.876;2022-11-21T13:29:13;100044.59;;;5.24;61.01
56400;BME280;42298;53.638;9.876;2022-11-21T13:31:39;100054.16;;;5.26;61.15
56400;BME280;42298;53.638;9.876;2022-11-21T13:34:34;100044.09;;;5.22;60.66
56400;BME280;42298;53.638;9.876;2022-11-21T13:37:00;100046.69;;;5.13;60.88
56400;BME280;42298;53.638;9.876;2022-11-21T13:39:28;100034.25;;;5.02;60.84
56400;BME280;42298;53.638;9.876;2022-11-21T13:42:08;100052.34;;;5.17;60.95
56400;BME280;42298;53.638;9.876;2022-11-21T13:44:52;100033.09;;;5.08;61.39
56400;BME280;42298;53.638;9.876;2022-11-21T13:52:41;100060.59;;;5.35;61.71
56400;BME280;42298;53.638;9.876;2022-11-21T14:06:41;100049.09;;;5.15;61.32
56400;BME280;42298;53.638;9.876;2022-11-21T14:11:47;100038.66;;;4.98;61.25
56400;BME280;42298;53.638;9.876;2022-11-21T14:14:25;100055.94;;;5.12;61.25
56400;BME280;42298;53.638;9.876;2022-11-21T14:19:32;100040.03;;;4.96;61.68
56400;BME280;42298;53.638;9.876;2022-11-21T14:21:59;100050.09;;;5.00;61.36
56400;BME280;42298;53.638;9.876;2022-11-21T14:24:25;100056.47;;;4.91;61.25
56400;BME280;42298;53.638;9.876;2022-11-21T14:26:52;100050.81;;;4.82;61.22
56400;BME280;42298;53.638;9.876;2022-11-21T14:29:37;100034.47;;;4.82;61.54
56400;BME280;42298;53.638;9.876;2022-11-21T14:32:03;100039.03;;;4.87;61.37
56400;BME280;42298;53.638;9.876;2022-11-21T14:34:30;100024.13;;;4.79;61.03
56400;BME280;42298;53.638;9.876;2022-11-21T14:36:59;100027.38;;;4.81;61.59